CTM8 weather

Témiscouata-sur-le-Lac Water Aerodrome
Témiscouata-sur-le-Lac, Quebec, Canada

Public forecast

Using degrees Celsius for public forecast. Weather courtesy of forecast.io.

Closest aviation weather report (METAR) to Témiscouata-sur-le-Lac Water Aerodrome

Closest report is Northern Aroostook Regional Airport, 33.1 nm (61.3 km) SE. Retrieved 2020/01/25 06:53 UTC (36 minutes ago):

KFVE 250653Z AUTO 10006KT 10SM OVC110 M09/M12 A3043 RMK AO2 SLP320 T10941122

Closest aviation forecast (TAF) to Témiscouata-sur-le-Lac Water Aerodrome

Closest forecast is Northern Aroostook Regional Airport, 33.1 nm (61.3 km) SE. Retrieved 2020/01/25 06:22 UTC (1 hour ago):

TAF KFVE 250520Z 2506/2606 09004KT P6SM SCT100 FM251000 00000KT P6SM OVC025 FM251200 00000KT P6SM OVC015 FM251800 13003KT P6SM BKN020